createdAt,value
2019-03-05T00:00:31.935Z,99200.34
2019-03-05T00:03:01.507Z,99189.25
2019-03-05T00:05:31.195Z,99196.92
2019-03-05T00:08:00.686Z,99203.39
2019-03-05T00:10:30.483Z,99207.39
2019-03-05T00:13:00.066Z,99206.33
2019-03-05T00:15:30.446Z,99207.66
2019-03-05T00:18:00.164Z,99203.00
2019-03-05T00:20:29.704Z,99212.84
2019-03-05T00:22:59.394Z,99204.03
2019-03-05T00:25:31.892Z,99214.83
2019-03-05T00:28:04.464Z,99216.72
2019-03-05T00:30:37.379Z,99198.39
2019-03-05T00:33:10.574Z,99191.09
2019-03-05T00:35:42.407Z,99196.66
2019-03-05T00:38:14.980Z,99210.30
2019-03-05T00:40:47.606Z,99210.30
2019-03-05T00:43:20.193Z,99215.77
2019-03-05T00:45:51.251Z,99216.16
2019-03-05T00:48:23.892Z,99209.00
2019-03-05T00:50:56.515Z,99206.02
2019-03-05T00:53:29.095Z,99203.17
2019-03-05T00:56:01.692Z,99210.54
2019-03-05T00:58:34.278Z,99206.84
2019-03-05T01:01:06.893Z,99215.72
2019-03-05T01:03:39.765Z,99208.09
2019-03-05T01:06:12.838Z,99214.02
2019-03-05T01:08:42.516Z,99213.67
2019-03-05T01:11:12.533Z,99218.98
2019-03-05T01:13:42.790Z,99214.33
2019-03-05T01:16:12.698Z,99225.92
2019-03-05T01:18:42.768Z,99229.02
2019-03-05T01:21:12.491Z,99233.17
2019-03-05T01:23:42.045Z,99242.57
2019-03-05T01:26:12.224Z,99240.86
2019-03-05T01:28:43.820Z,99236.39
2019-03-05T01:31:15.316Z,99230.16
2019-03-05T01:33:46.585Z,99227.66
2019-03-05T01:36:17.821Z,99231.77
2019-03-05T01:38:49.037Z,99224.34
2019-03-05T01:41:18.720Z,99226.23
2019-03-05T01:43:48.335Z,99224.40
2019-03-05T01:46:17.935Z,99233.52
2019-03-05T01:48:47.229Z,99233.62
2019-03-05T01:51:16.818Z,99233.75
2019-03-05T01:53:46.308Z,99238.94
2019-03-05T01:56:15.758Z,99240.23
2019-03-05T01:58:45.367Z,99248.44
2019-03-05T02:01:14.882Z,99242.56
2019-03-05T02:03:44.427Z,99239.33
2019-03-05T02:06:13.829Z,99241.67
2019-03-05T02:08:43.366Z,99237.19
2019-03-05T02:11:13.657Z,99248.78
2019-03-05T02:13:43.367Z,99251.72
2019-03-05T02:19:47.314Z,99247.34
2019-03-05T02:22:20.001Z,99245.39
2019-03-05T02:24:52.610Z,99245.50
2019-03-05T02:27:25.209Z,99239.30
2019-03-05T02:30:16.978Z,99236.06
2019-03-05T02:32:49.670Z,99232.27
2019-03-05T02:35:22.244Z,99225.40
2019-03-05T02:37:52.977Z,99230.41
2019-03-05T02:40:25.541Z,99227.55
2019-03-05T02:43:15.871Z,99233.70
2019-03-05T02:45:48.450Z,99222.62
2019-03-05T02:48:21.075Z,99218.22
2019-03-05T02:54:27.683Z,99226.83
2019-03-05T02:57:00.364Z,99224.33
2019-03-05T02:59:29.933Z,99227.72
2019-03-05T03:02:01.136Z,99229.78
2019-03-05T03:04:32.390Z,99229.43
2019-03-05T03:07:01.953Z,99227.59
2019-03-05T03:09:33.052Z,99237.36
2019-03-05T03:12:04.056Z,99237.19
2019-03-05T03:14:33.579Z,99237.63
2019-03-05T03:17:03.048Z,99237.26
2019-03-05T03:19:32.230Z,99240.74
2019-03-05T03:22:01.700Z,99242.12
2019-03-05T03:24:31.312Z,99241.11
2019-03-05T03:27:00.730Z,99243.84
2019-03-05T03:29:30.273Z,99248.22
2019-03-05T03:31:59.855Z,99245.86
2019-03-05T03:34:29.415Z,99252.32
2019-03-05T03:36:58.878Z,99251.83
2019-03-05T03:39:28.675Z,99252.55
2019-03-05T03:41:57.944Z,99258.38
2019-03-05T03:44:27.498Z,99266.56
2019-03-05T03:46:57.030Z,99261.67
2019-03-05T03:49:26.475Z,99267.31
2019-03-05T03:51:55.938Z,99269.16
2019-03-05T03:54:25.463Z,99264.25
2019-03-05T03:56:55.074Z,99268.52
2019-03-05T03:59:25.673Z,99265.73
2019-03-05T04:01:55.252Z,99264.64
2019-03-05T04:04:24.857Z,99262.98
2019-03-05T04:06:54.485Z,99268.25
2019-03-05T04:09:23.986Z,99269.52
2019-03-05T04:11:53.514Z,99260.91
2019-03-05T04:14:22.678Z,99262.05
2019-03-05T04:16:52.254Z,99261.77
2019-03-05T04:19:23.527Z,99269.23
2019-03-05T04:21:53.063Z,99263.32
2019-03-05T04:24:22.664Z,99256.33
2019-03-05T04:26:52.394Z,99261.92
2019-03-05T04:29:22.011Z,99251.92
2019-03-05T04:31:51.629Z,99255.31
2019-03-05T04:34:20.991Z,99257.47
2019-03-05T04:36:50.636Z,99253.73
2019-03-05T04:39:20.196Z,99256.80
2019-03-05T04:41:49.589Z,99263.70
2019-03-05T04:44:59.089Z,99255.66
2019-03-05T04:47:28.550Z,99258.51
2019-03-05T04:49:59.695Z,99270.25
2019-03-05T04:52:29.272Z,99276.06
2019-03-05T04:54:58.793Z,99278.38
2019-03-05T04:57:28.271Z,99276.03
2019-03-05T04:59:57.737Z,99279.73
2019-03-05T05:02:27.331Z,99278.34
2019-03-05T05:04:56.791Z,99279.23
2019-03-05T05:07:26.270Z,99281.03
2019-03-05T05:10:35.769Z,99277.04
2019-03-05T05:13:05.143Z,99270.59
2019-03-05T05:15:35.817Z,99273.50
2019-03-05T05:18:05.405Z,99273.18
2019-03-05T05:20:34.921Z,99274.27
2019-03-05T05:23:04.426Z,99268.52
2019-03-05T05:25:33.663Z,99269.13
2019-03-05T05:28:03.131Z,99268.91
2019-03-05T05:30:53.581Z,99272.73
2019-03-05T05:33:34.375Z,99277.87
2019-03-05T05:36:03.821Z,99271.03
2019-03-05T05:38:33.337Z,99275.84
2019-03-05T05:41:02.786Z,99279.11
2019-03-05T05:43:32.965Z,99295.91
2019-03-05T05:46:02.982Z,99286.93
2019-03-05T05:48:32.508Z,99295.20
2019-03-05T05:51:02.170Z,99297.80
2019-03-05T05:53:31.765Z,99295.67
2019-03-05T05:56:01.378Z,99294.05
2019-03-05T05:58:30.924Z,99290.75
2019-03-05T06:01:02.306Z,99292.11
2019-03-05T06:03:31.771Z,99294.96
2019-03-05T06:06:01.383Z,99302.88
2019-03-05T06:08:30.896Z,99300.70
2019-03-05T06:11:00.600Z,99300.70
2019-03-05T06:13:30.059Z,99297.81
2019-03-05T06:16:01.159Z,99299.25
2019-03-05T06:18:30.749Z,99297.05
2019-03-05T06:21:02.105Z,99276.02
2019-03-05T06:23:31.751Z,99288.31
2019-03-05T06:26:01.308Z,99293.92
2019-03-05T06:28:30.898Z,99287.00
2019-03-05T06:31:00.608Z,99291.58
2019-03-05T06:33:30.146Z,99287.94
2019-03-05T06:35:59.734Z,99284.33
2019-03-05T06:38:29.272Z,99291.27
2019-03-05T06:40:59.799Z,99283.28
2019-03-05T06:43:29.250Z,99287.27
2019-03-05T06:45:59.101Z,99285.98
2019-03-05T06:48:28.551Z,99289.08
2019-03-05T06:50:58.053Z,99283.00
2019-03-05T06:53:27.504Z,99289.86
2019-03-05T06:55:56.990Z,99302.48
2019-03-05T06:58:26.558Z,99296.58
2019-03-05T07:00:56.235Z,99297.23
2019-03-05T07:03:25.523Z,99303.81
2019-03-05T07:05:59.225Z,99302.36
2019-03-05T07:08:28.887Z,99304.20
2019-03-05T07:11:01.466Z,99295.73
2019-03-05T07:13:33.982Z,99296.95
2019-03-05T07:16:07.025Z,99301.46
2019-03-05T07:18:40.062Z,99295.89
2019-03-05T07:21:12.843Z,99301.92
2019-03-05T07:23:45.193Z,99302.55
2019-03-05T07:26:14.733Z,99307.09
2019-03-05T07:28:44.426Z,99303.80
2019-03-05T07:31:13.942Z,99305.06
2019-03-05T07:33:43.541Z,99297.91
2019-03-05T07:36:13.059Z,99297.38
2019-03-05T07:38:42.423Z,99312.06
2019-03-05T07:41:11.957Z,99302.06
2019-03-05T07:43:41.498Z,99294.45
2019-03-05T07:46:11.037Z,99294.40
2019-03-05T07:48:40.646Z,99294.70
2019-03-05T07:51:10.450Z,99295.12
2019-03-05T07:53:40.120Z,99300.56
2019-03-05T07:56:10.220Z,99287.56
2019-03-05T07:58:39.898Z,99295.16
2019-03-05T08:01:21.506Z,99301.42
2019-03-05T08:03:42.309Z,99299.45
2019-03-05T08:06:12.536Z,99305.01
2019-03-05T08:08:45.471Z,99311.84
2019-03-05T08:11:15.402Z,99308.97
2019-03-05T08:13:48.007Z,99310.45
2019-03-05T08:16:19.225Z,99307.16
2019-03-05T08:18:48.868Z,99316.19
2019-03-05T08:21:18.422Z,99309.50
2019-03-05T08:23:51.006Z,99312.13
2019-03-05T08:26:20.619Z,99315.19
2019-03-05T08:28:50.493Z,99316.16
2019-03-05T08:31:20.094Z,99314.11
2019-03-05T08:33:49.696Z,99310.98
2019-03-05T08:36:19.233Z,99318.94
2019-03-05T08:38:49.161Z,99316.59
2019-03-05T08:41:18.704Z,99307.64
2019-03-05T08:43:48.730Z,99319.92
2019-03-05T08:46:18.200Z,99315.64
2019-03-05T08:48:49.851Z,99319.46
2019-03-05T08:51:19.877Z,99320.51
2019-03-05T08:53:50.054Z,99317.95
2019-03-05T08:56:59.566Z,99318.23
2019-03-05T08:59:29.384Z,99317.53
2019-03-05T09:01:58.918Z,99324.31
2019-03-05T09:04:31.826Z,99310.15
2019-03-05T09:07:01.628Z,99310.58
2019-03-05T09:09:31.526Z,99314.95
2019-03-05T09:12:01.123Z,99315.31
2019-03-05T09:14:30.731Z,99325.25
2019-03-05T09:17:00.296Z,99328.31
2019-03-05T09:19:50.626Z,99328.29
2019-03-05T09:22:20.173Z,99326.19
2019-03-05T09:24:49.891Z,99339.26
2019-03-05T09:27:19.580Z,99324.77
2019-03-05T09:29:49.046Z,99333.79
2019-03-05T09:32:19.084Z,99326.16
2019-03-05T09:34:48.650Z,99333.92
2019-03-05T09:37:18.093Z,99329.91
2019-03-05T09:39:47.619Z,99332.97
2019-03-05T09:42:17.322Z,99331.52
2019-03-05T09:44:46.789Z,99342.59
2019-03-05T09:47:16.309Z,99340.69
2019-03-05T09:49:45.836Z,99344.02
2019-03-05T09:52:17.730Z,99353.78
2019-03-05T09:54:47.248Z,99349.89
2019-03-05T09:57:16.769Z,99342.48
2019-03-05T09:59:46.314Z,99342.00
2019-03-05T10:02:16.935Z,99359.54
2019-03-05T10:04:46.422Z,99364.23
2019-03-05T10:07:19.298Z,99360.53
2019-03-05T10:09:47.032Z,99360.09
2019-03-05T10:12:16.647Z,99361.42
2019-03-05T10:14:46.079Z,99356.53
2019-03-05T10:17:15.627Z,99347.36
2019-03-05T10:19:44.911Z,99353.80
2019-03-05T10:22:14.540Z,99358.99
2019-03-05T10:24:44.056Z,99362.76
2019-03-05T10:27:13.663Z,99352.13
2019-03-05T10:29:43.172Z,99356.66
2019-03-05T10:35:28.526Z,99360.78
2019-03-05T10:38:01.205Z,99376.81
2019-03-05T10:40:33.500Z,99379.75
2019-03-05T10:43:08.847Z,99386.13
2019-03-05T10:45:36.451Z,99390.06
2019-03-05T10:48:06.277Z,99390.77
2019-03-05T10:50:35.788Z,99391.47
2019-03-05T10:53:05.710Z,99412.55
2019-03-05T10:55:35.281Z,99410.55
2019-03-05T10:58:05.382Z,99410.30
2019-03-05T11:00:38.331Z,99405.32
2019-03-05T11:03:09.660Z,99402.70
2019-03-05T11:05:40.250Z,99402.36
2019-03-05T11:08:14.906Z,99408.05
2019-03-05T11:10:44.417Z,99410.14
2019-03-05T11:13:14.130Z,99411.22
2019-03-05T11:15:43.449Z,99415.23
2019-03-05T11:18:13.260Z,99417.69
2019-03-05T11:20:42.561Z,99417.53
2019-03-05T11:23:12.381Z,99421.94
2019-03-05T11:25:41.898Z,99418.57
2019-03-05T11:28:11.093Z,99427.08
2019-03-05T11:30:40.799Z,99426.22
2019-03-05T11:33:09.729Z,99428.22
2019-03-05T11:35:39.411Z,99417.70
2019-03-05T11:38:09.208Z,99424.48
2019-03-05T11:40:38.915Z,99415.34
2019-03-05T11:43:11.013Z,99422.25
2019-03-05T11:45:42.402Z,99418.44
2019-03-05T11:48:12.098Z,99413.16
2019-03-05T11:50:41.353Z,99416.67
2019-03-05T11:53:10.715Z,99412.13
2019-03-05T11:55:41.327Z,99410.37
2019-03-05T11:58:10.990Z,99421.72
2019-03-05T12:00:42.813Z,99423.22
2019-03-05T12:03:31.886Z,99423.22
2019-03-05T12:06:01.580Z,99438.06
2019-03-05T12:08:31.173Z,99434.57
2019-03-05T12:11:00.772Z,99440.53
2019-03-05T12:13:30.299Z,99436.08
2019-03-05T12:16:00.123Z,99429.06
2019-03-05T12:18:29.740Z,99431.51
2019-03-05T12:20:59.699Z,99429.03
2019-03-05T12:23:29.198Z,99435.20
2019-03-05T12:25:58.751Z,99439.66
2019-03-05T12:28:28.354Z,99436.97
2019-03-05T12:30:57.964Z,99425.88
2019-03-05T12:33:27.565Z,99425.33
2019-03-05T12:35:57.037Z,99424.80
2019-03-05T12:42:03.512Z,99421.77
2019-03-05T12:44:32.254Z,99444.48
2019-03-05T12:47:01.776Z,99423.22
2019-03-05T12:49:31.358Z,99415.03
2019-03-05T12:52:00.971Z,99412.53
2019-03-05T12:54:30.451Z,99422.81
2019-03-05T12:57:00.100Z,99408.88
2019-03-05T12:59:29.611Z,99402.77
2019-03-05T13:01:59.167Z,99409.70
2019-03-05T13:04:28.783Z,99404.04
2019-03-05T13:06:58.447Z,99408.83
2019-03-05T13:09:28.022Z,99402.27
2019-03-05T13:11:57.565Z,99411.80
2019-03-05T13:14:27.151Z,99399.95
2019-03-05T13:16:56.694Z,99406.06
2019-03-05T13:19:26.265Z,99414.75
2019-03-05T13:21:55.873Z,99409.64
2019-03-05T13:24:25.565Z,99425.38
2019-03-05T13:26:55.139Z,99416.88
2019-03-05T13:29:24.658Z,99428.69
2019-03-05T13:31:54.160Z,99426.30
2019-03-05T13:34:24.335Z,99438.09
2019-03-05T13:36:53.941Z,99435.17
2019-03-05T13:46:00.066Z,99443.61
2019-03-05T13:48:32.651Z,99446.63
2019-03-05T13:51:05.254Z,99452.15
2019-03-05T13:53:37.826Z,99454.27
2019-03-05T13:56:11.913Z,99463.38
2019-03-05T13:58:44.202Z,99459.06
2019-03-05T14:01:13.772Z,99462.75
2019-03-05T14:03:46.386Z,99464.00
2019-03-05T14:06:19.188Z,99471.81
2019-03-05T14:08:51.797Z,99479.53
2019-03-05T14:11:21.462Z,99474.27
2019-03-05T14:13:51.040Z,99479.12
2019-03-05T14:16:21.526Z,99476.77
2019-03-05T14:18:51.028Z,99482.62
2019-03-05T14:21:20.693Z,99476.45
2019-03-05T14:23:50.168Z,99478.13
2019-03-05T14:26:19.862Z,99476.03
2019-03-05T14:28:49.422Z,99481.10
2019-03-05T14:31:19.008Z,99485.52
2019-03-05T14:33:50.379Z,99485.31
2019-03-05T14:36:20.413Z,99481.81
2019-03-05T14:38:51.848Z,99487.29
2019-03-05T14:41:21.962Z,99480.66
2019-03-05T14:43:51.886Z,99479.88
2019-03-05T14:46:21.543Z,99476.98
2019-03-05T14:48:51.185Z,99484.72
2019-03-05T14:51:20.800Z,99477.98
2019-03-05T14:53:50.359Z,99483.88
2019-03-05T14:56:19.918Z,99482.23
2019-03-05T14:58:49.724Z,99486.45
2019-03-05T15:01:19.195Z,99485.12
2019-03-05T15:03:48.742Z,99492.22
2019-03-05T15:06:18.273Z,99488.50
2019-03-05T15:08:47.809Z,99488.81
2019-03-05T15:11:17.186Z,99494.42
2019-03-05T15:13:46.871Z,99496.08
2019-03-05T15:16:16.439Z,99492.83
2019-03-05T15:18:47.485Z,99504.95
2019-03-05T15:21:17.081Z,99502.17
2019-03-05T15:23:46.980Z,99501.47
2019-03-05T15:26:16.493Z,99500.44
2019-03-05T15:28:55.744Z,99508.68
2019-03-05T15:31:17.387Z,99505.07
2019-03-05T15:33:47.069Z,99508.90
2019-03-05T15:36:23.710Z,99513.11
2019-03-05T15:38:48.633Z,99513.81
2019-03-05T15:41:18.255Z,99508.90
2019-03-05T15:43:47.664Z,99509.80
2019-03-05T15:46:17.396Z,99506.78
2019-03-05T15:48:46.810Z,99512.72
2019-03-05T15:51:16.160Z,99514.58
2019-03-05T15:56:15.182Z,99508.50
2019-03-05T15:58:44.628Z,99519.75
2019-03-05T16:01:22.039Z,99514.78
2019-03-05T16:03:45.571Z,99503.56
2019-03-05T16:06:15.187Z,99499.72
2019-03-05T16:08:44.629Z,99506.20
2019-03-05T16:11:14.081Z,99508.43
2019-03-05T16:13:43.541Z,99514.20
2019-03-05T16:16:13.154Z,99514.61
2019-03-05T16:18:42.901Z,99514.59
2019-03-05T16:21:12.443Z,99522.79
2019-03-05T16:23:42.016Z,99520.00
2019-03-05T16:26:11.728Z,99529.37
2019-03-05T16:28:43.469Z,99524.80
2019-03-05T16:31:14.451Z,99541.31
2019-03-05T16:33:45.867Z,99547.06
2019-03-05T16:36:17.020Z,99556.15
2019-03-05T16:38:51.091Z,99555.95
2019-03-05T16:41:21.791Z,99557.91
2019-03-05T16:43:53.353Z,99572.55
2019-03-05T16:46:24.590Z,99574.46
2019-03-05T16:48:55.711Z,99588.11
2019-03-05T16:51:26.932Z,99598.89
2019-03-05T16:53:58.163Z,99602.53
2019-03-05T16:56:29.371Z,99605.23
2019-03-05T16:59:00.762Z,99607.36
2019-03-05T17:01:31.802Z,99607.85
2019-03-05T17:04:03.029Z,99614.67
2019-03-05T17:06:34.969Z,99624.05
2019-03-05T17:09:07.236Z,99629.02
2019-03-05T17:11:38.467Z,99637.59
2019-03-05T17:14:08.483Z,99635.94
2019-03-05T17:16:37.741Z,99645.41
2019-03-05T17:19:08.023Z,99645.28
2019-03-05T17:21:37.468Z,99653.77
2019-03-05T17:24:07.481Z,99658.86
2019-03-05T17:26:37.755Z,99662.87
2019-03-05T17:29:07.434Z,99668.58
2019-03-05T17:31:36.704Z,99675.20
2019-03-05T17:34:06.349Z,99677.08
2019-03-05T17:36:36.124Z,99686.95
2019-03-05T17:39:09.530Z,99688.77
2019-03-05T17:41:38.795Z,99695.34
2019-03-05T17:44:08.780Z,99697.42
2019-03-05T17:46:38.319Z,99697.42
2019-03-05T17:49:08.003Z,99705.20
2019-03-05T17:51:37.521Z,99709.24
2019-03-05T17:54:06.976Z,99707.27
2019-03-05T17:56:36.509Z,99709.77
2019-03-05T18:02:23.130Z,99710.48
2019-03-05T18:04:52.992Z,99716.13
2019-03-05T18:07:22.476Z,99720.84
2019-03-05T18:09:51.963Z,99725.41
2019-03-05T18:12:21.049Z,99733.01
2019-03-05T18:14:50.895Z,99737.70
2019-03-05T18:17:20.600Z,99741.97
2019-03-05T18:19:50.194Z,99747.47
2019-03-05T18:22:19.593Z,99744.75
2019-03-05T18:24:49.060Z,99749.61
2019-03-05T18:27:18.775Z,99751.42
2019-03-05T18:29:48.249Z,99752.30
2019-03-05T18:32:17.761Z,99749.02
2019-03-05T18:34:47.228Z,99752.09
2019-03-05T18:37:16.687Z,99747.14
2019-03-05T18:39:46.423Z,99750.00
2019-03-05T18:42:16.027Z,99760.24
2019-03-05T18:44:45.622Z,99764.09
2019-03-05T18:47:15.213Z,99768.84
2019-03-05T18:49:44.704Z,99773.98
2019-03-05T18:52:14.232Z,99780.19
2019-03-05T18:54:43.770Z,99783.49
2019-03-05T18:57:53.276Z,99779.41
2019-03-05T19:00:24.796Z,99782.97
2019-03-05T19:02:56.482Z,99781.13
2019-03-05T19:05:26.209Z,99787.66
2019-03-05T19:07:55.886Z,99775.84
2019-03-05T19:14:00.811Z,99807.62
2019-03-05T19:16:30.526Z,99808.78
2019-03-05T19:19:00.736Z,99816.30
2019-03-05T19:21:30.257Z,99810.00
2019-03-05T19:24:01.097Z,99822.38
2019-03-05T19:26:30.657Z,99823.00
2019-03-05T19:29:00.169Z,99838.98
2019-03-05T19:31:29.990Z,99836.13
2019-03-05T19:33:59.702Z,99843.97
2019-03-05T19:42:06.625Z,99851.04
2019-03-05T19:44:36.080Z,99856.72
2019-03-05T19:47:05.695Z,99849.20
2019-03-05T19:49:35.396Z,99854.88
2019-03-05T19:52:05.064Z,99857.73
2019-03-05T19:54:34.517Z,99864.04
2019-03-05T19:57:04.120Z,99864.72
2019-03-05T19:59:33.570Z,99875.20
2019-03-05T20:02:03.123Z,99876.06
2019-03-05T20:04:32.938Z,99876.88
2019-03-05T20:07:02.660Z,99881.87
2019-03-05T20:12:46.989Z,99879.34
2019-03-05T20:15:17.948Z,99887.86
2019-03-05T20:17:47.625Z,99887.19
2019-03-05T20:20:17.572Z,99893.67
2019-03-05T20:22:47.188Z,99886.02
2019-03-05T20:25:19.151Z,99894.16
2019-03-05T20:27:50.427Z,99893.83
2019-03-05T20:30:23.311Z,99893.02
2019-03-05T20:32:53.022Z,99897.34
2019-03-05T20:35:22.462Z,99897.70
2019-03-05T20:37:52.082Z,99902.35
2019-03-05T20:40:24.703Z,99895.86
2019-03-05T20:42:54.236Z,99892.05
2019-03-05T20:45:26.676Z,99898.88
2019-03-05T20:47:58.260Z,99898.36
2019-03-05T20:50:27.865Z,99893.20
2019-03-05T20:55:45.515Z,99894.70
2019-03-05T20:58:15.169Z,99899.03
2019-03-05T21:00:45.127Z,99902.37
2019-03-05T21:03:16.433Z,99895.86
2019-03-05T21:05:47.725Z,99894.89
2019-03-05T21:08:17.278Z,99905.03
2019-03-05T21:10:46.992Z,99897.70
2019-03-05T21:13:16.691Z,99897.70
2019-03-05T21:15:46.515Z,99901.02
2019-03-05T21:18:19.510Z,99904.17
2019-03-05T21:20:48.973Z,99900.02
2019-03-05T21:23:18.809Z,99896.69
2019-03-05T21:25:48.447Z,99900.52
2019-03-05T21:28:18.009Z,99897.36
2019-03-05T21:30:47.387Z,99897.20
2019-03-05T21:36:31.377Z,99896.88
2019-03-05T21:39:01.375Z,99889.73
2019-03-05T21:41:30.964Z,99899.02
2019-03-05T21:44:00.556Z,99894.53
2019-03-05T21:46:30.468Z,99887.22
2019-03-05T21:48:59.890Z,99897.19
2019-03-05T21:51:29.490Z,99895.37
2019-03-05T21:53:59.111Z,99892.04
2019-03-05T21:56:28.536Z,99885.56
2019-03-05T21:58:58.262Z,99894.70
2019-03-05T22:01:27.962Z,99896.72
2019-03-05T22:03:57.448Z,99906.17
2019-03-05T22:06:27.505Z,99909.83
2019-03-05T22:08:56.820Z,99902.52
2019-03-05T22:11:26.364Z,99910.50
2019-03-05T22:13:55.806Z,99909.52
2019-03-05T22:16:25.415Z,99911.00
2019-03-05T22:18:54.856Z,99912.16
2019-03-05T22:21:24.741Z,99907.52
2019-03-05T22:23:54.237Z,99906.84
2019-03-05T22:26:23.985Z,99909.31
2019-03-05T22:28:53.648Z,99905.00
2019-03-05T22:31:23.236Z,99902.00
2019-03-05T22:33:52.817Z,99905.65
2019-03-05T22:36:22.351Z,99904.48
2019-03-05T22:38:52.339Z,99911.66
2019-03-05T22:41:21.778Z,99906.30
2019-03-05T22:43:51.405Z,99904.16
2019-03-05T22:46:20.850Z,99901.16
2019-03-05T22:48:50.433Z,99900.84
2019-03-05T22:51:19.895Z,99899.19
2019-03-05T22:53:49.468Z,99900.17
2019-03-05T22:56:19.122Z,99905.00
2019-03-05T22:58:49.629Z,99900.83
2019-03-05T23:01:22.773Z,99904.00
2019-03-05T23:03:52.390Z,99913.80
2019-03-05T23:06:22.171Z,99911.97
2019-03-05T23:08:51.894Z,99918.30
2019-03-05T23:11:21.488Z,99922.80
2019-03-05T23:13:51.754Z,99924.10
2019-03-05T23:16:21.756Z,99922.95
2019-03-05T23:18:51.377Z,99914.60
2019-03-05T23:21:20.894Z,99913.43
2019-03-05T23:23:50.254Z,99908.27
2019-03-05T23:26:19.877Z,99908.11
2019-03-05T23:28:49.527Z,99903.56
2019-03-05T23:31:19.206Z,99902.00
2019-03-05T23:33:48.773Z,99899.78
2019-03-05T23:36:18.529Z,99900.80
2019-03-05T23:38:48.079Z,99894.06
2019-03-05T23:41:17.770Z,99898.71
2019-03-05T23:43:47.308Z,99899.10
2019-03-05T23:46:16.894Z,99899.07
2019-03-05T23:48:46.546Z,99901.63
2019-03-05T23:51:16.070Z,99896.62
2019-03-05T23:53:45.691Z,99896.26
2019-03-05T23:56:15.331Z,99893.38
2019-03-05T23:58:44.890Z,99889.42
